Time;durP1;ratioP1;P1;durP2;ratioP2;P2;SDS_P1;SDS_P2;PMS_P1;PMS_P2;Temp;Humidity;BMP_temperature;BMP_pressure;BME280_temperature;BME280_humidity;BME280_pressure;Samples;Min_cycle;Max_cycle;Signal;HPM_P1;HPM_P2
2022/07/16 00:03:44;;;;;;;11.82;2.70;;;45.60;23.60;;;;;;5028731;28;20033;-72
2022/07/16 00:06:10;;;;;;;11.57;2.38;;;45.60;23.70;;;;;;5043813;28;20022;-70
2022/07/16 00:08:37;;;;;;;7.22;1.60;;;45.60;24.00;;;;;;5027349;28;20368;-71
2022/07/16 00:11:03;;;;;;;12.98;2.47;;;45.60;23.80;;;;;;5032490;28;20036;-71
2022/07/16 00:13:30;;;;;;;11.88;2.10;;;45.40;23.30;;;;;;5030108;28;20468;-72
2022/07/16 00:15:56;;;;;;;12.63;2.10;;;45.40;23.70;;;;;;5031302;28;20056;-72
2022/07/16 00:21:07;;;;;;;17.67;2.50;;;45.40;24.00;;;;;;5033057;28;20036;-71
2022/07/16 00:23:34;;;;;;;7.45;1.80;;;45.40;24.70;;;;;;5046635;28;20041;-72
2022/07/16 00:26:00;;;;;;;8.80;1.88;;;45.40;24.50;;;;;;5030958;28;20029;-72
2022/07/16 00:28:27;;;;;;;10.73;1.67;;;45.30;24.30;;;;;;5029944;28;20431;-71
2022/07/16 00:30:53;;;;;;;10.80;1.98;;;45.10;24.40;;;;;;5033266;28;20029;-74
2022/07/16 00:33:19;;;;;;;10.73;2.03;;;45.00;24.90;;;;;;5047899;28;20032;-74
2022/07/16 00:35:46;;;;;;;9.75;2.28;;;45.00;24.90;;;;;;5030149;28;20530;-69
2022/07/16 00:38:12;;;;;;;10.35;2.28;;;45.00;25.00;;;;;;5031114;28;20507;-71
2022/07/16 00:40:39;;;;;;;12.98;2.55;;;45.00;25.00;;;;;;5031233;28;20025;-72
2022/07/16 00:43:10;;;;;;;12.65;2.55;;;45.00;25.10;;;;;;5032243;28;20037;-71
2022/07/16 00:45:38;;;;;;;9.77;2.40;;;44.80;25.20;;;;;;5030833;28;20025;-71
2022/07/16 00:48:05;;;;;;;12.27;2.38;;;44.80;25.40;;;;;;5047191;28;20044;-71
2022/07/16 00:50:32;;;;;;;9.55;2.47;;;44.80;26.00;;;;;;5031166;28;20479;-71
2022/07/16 00:53:01;;;;;;;10.70;2.40;;;44.60;25.00;;;;;;5031059;28;20146;-75
2022/07/16 00:55:28;;;;;;;7.80;2.47;;;44.50;25.30;;;;;;5030569;28;20602;-73
2022/07/16 00:57:58;;;;;;;12.77;2.20;;;44.40;25.60;;;;;;5030138;28;20438;-73
2022/07/16 01:00:25;;;;;;;14.25;2.20;;;44.40;25.90;;;;;;5030261;28;20056;-69
2022/07/16 01:02:52;;;;;;;13.45;2.17;;;44.30;25.70;;;;;;5030711;28;20472;-72
2022/07/16 01:05:19;;;;;;;8.32;2.22;;;44.20;25.90;;;;;;5046929;28;20095;-75
2022/07/16 01:07:45;;;;;;;9.40;2.45;;;44.10;25.80;;;;;;5030497;28;20040;-71
2022/07/16 01:10:13;;;;;;;11.52;2.97;;;44.10;26.10;;;;;;5046719;28;20099;-71
2022/07/16 01:12:39;;;;;;;14.45;2.30;;;44.10;26.50;;;;;;5030381;28;20396;-73
2022/07/16 01:15:06;;;;;;;12.68;2.80;;;44.10;26.70;;;;;;5029640;28;20040;-73
2022/07/16 01:17:33;;;;;;;10.93;2.00;;;44.00;25.90;;;;;;5030047;28;21183;-74
2022/07/16 01:19:59;;;;;;;9.82;2.28;;;43.90;25.60;;;;;;5030710;28;20490;-72
2022/07/16 01:22:26;;;;;;;10.63;2.10;;;43.90;25.60;;;;;;5045628;28;20040;-71
2022/07/16 01:24:53;;;;;;;13.00;2.40;;;43.90;25.60;;;;;;5029345;28;20067;-71
2022/07/16 01:27:20;;;;;;;7.65;1.65;;;43.80;26.00;;;;;;5028326;28;20570;-70
2022/07/16 01:29:48;;;;;;;6.05;2.03;;;43.60;25.50;;;;;;5028900;28;20041;-69
2022/07/16 01:32:14;;;;;;;6.47;2.00;;;43.60;25.70;;;;;;5012548;28;20505;-71
2022/07/16 01:34:41;;;;;;;12.55;2.00;;;43.60;25.70;;;;;;5028031;28;20058;-68
2022/07/16 01:37:14;;;;;;;12.82;2.20;;;43.60;25.80;;;;;;5030319;28;20030;-71
2022/07/16 01:39:45;;;;;;;11.18;2.20;;;43.50;25.60;;;;;;5045285;28;20045;-71
2022/07/16 01:42:11;;;;;;;12.40;2.00;;;43.40;25.70;;;;;;5027229;28;20041;-71
2022/07/16 01:44:38;;;;;;;13.05;2.03;;;43.30;25.80;;;;;;5028232;28;20044;-73
2022/07/16 01:47:07;;;;;;;11.98;1.98;;;43.40;25.90;;;;;;5028255;28;20259;-70
2022/07/16 01:49:36;;;;;;;12.23;1.90;;;43.30;25.90;;;;;;5046554;28;20035;-74
2022/07/16 01:52:14;;;;;;;15.70;2.00;;;43.30;26.10;;;;;;5028670;28;20037;-72
2022/07/16 01:55:01;;;;;;;13.05;2.03;;;43.20;26.10;;;;;;5034140;22;20083;-72
2022/07/16 01:57:27;;;;;;;11.60;2.20;;;43.10;26.50;;;;;;5026483;28;20400;-72
2022/07/16 01:59:54;;;;;;;14.30;3.15;;;43.10;26.40;;;;;;5027965;28;20044;-72
2022/07/16 02:02:20;;;;;;;15.73;2.08;;;42.90;26.60;;;;;;5027903;28;20022;-72
2022/07/16 02:04:46;;;;;;;17.55;1.75;;;42.80;26.80;;;;;;5027012;28;20819;-72
2022/07/16 02:07:13;;;;;;;9.07;2.10;;;42.70;26.90;;;;;;5028774;28;20052;-69
2022/07/16 02:09:39;;;;;;;16.30;2.22;;;42.70;27.30;;;;;;5027571;28;20127;-71
2022/07/16 02:12:06;;;;;;;9.65;1.90;;;42.60;27.50;;;;;;5027591;28;20129;-71
2022/07/16 02:14:32;;;;;;;11.45;2.05;;;42.50;27.60;;;;;;5027941;28;20111;-71
2022/07/16 02:17:03;;;;;;;25.90;2.78;;;42.50;27.90;;;;;;5027852;28;21186;-72
2022/07/16 02:19:30;;;;;;;11.95;2.47;;;42.40;28.00;;;;;;5030727;28;20061;-71
2022/07/16 02:21:56;;;;;;;12.45;2.53;;;42.20;27.80;;;;;;5045068;28;20038;-76
2022/07/16 02:24:23;;;;;;;16.35;2.53;;;42.20;27.80;;;;;;5027915;28;20115;-71
2022/07/16 02:26:49;;;;;;;15.65;2.17;;;42.10;27.90;;;;;;5028075;28;20494;-72
2022/07/16 02:29:16;;;;;;;15.73;2.28;;;42.00;28.00;;;;;;5027440;28;20614;-71
2022/07/16 02:31:42;;;;;;;24.10;2.33;;;41.90;28.30;;;;;;5027074;28;20041;-74
2022/07/16 02:34:08;;;;;;;17.90;3.40;;;41.90;28.50;;;;;;5026971;28;20050;-74
2022/07/16 02:36:35;;;;;;;17.65;3.30;;;41.70;28.70;;;;;;5043947;28;20071;-71
2022/07/16 02:39:01;;;;;;;20.77;3.40;;;41.70;28.90;;;;;;5046594;28;20051;-70
2022/07/16 02:41:30;;;;;;;39.70;3.65;;;41.60;29.10;;;;;;5048529;28;20056;-71
2022/07/16 02:43:56;;;;;;;27.42;3.40;;;41.50;29.20;;;;;;5047476;28;20500;-72
2022/07/16 02:46:22;;;;;;;29.20;3.38;;;41.50;29.40;;;;;;5047301;28;20380;-70
2022/07/16 02:48:49;;;;;;;24.02;3.30;;;41.40;29.50;;;;;;5046915;28;20410;-70
2022/07/16 02:51:16;;;;;;;19.30;2.67;;;41.30;29.50;;;;;;5048632;28;20104;-71
2022/07/16 02:53:42;;;;;;;28.58;3.53;;;41.20;29.60;;;;;;5048141;28;20107;-70
2022/07/16 02:56:09;;;;;;;21.02;2.75;;;41.10;29.70;;;;;;5053505;28;20073;-72
2022/07/16 02:58:35;;;;;;;31.50;3.50;;;41.10;29.80;;;;;;5046414;28;20057;-73
2022/07/16 03:01:02;;;;;;;19.63;3.05;;;40.90;29.70;;;;;;5173637;22;20104;-70
2022/07/16 03:03:28;;;;;;;10.45;2.47;;;40.90;29.80;;;;;;5044176;28;20062;-73
2022/07/16 03:05:55;;;;;;;21.17;3.05;;;40.80;30.00;;;;;;5045951;28;20523;-69
2022/07/16 03:08:21;;;;;;;27.08;3.45;;;40.80;30.10;;;;;;5043251;28;20507;-69
2022/07/16 03:10:48;;;;;;;25.55;3.55;;;40.70;30.20;;;;;;5046735;28;20063;-71
2022/07/16 03:13:15;;;;;;;26.30;3.10;;;40.70;30.40;;;;;;5044737;28;20094;-71
2022/07/16 03:15:41;;;;;;;22.73;2.80;;;40.60;30.50;;;;;;5045426;28;20068;-71
2022/07/16 03:18:08;;;;;;;21.80;2.72;;;40.50;30.70;;;;;;5046514;28;20088;-72
2022/07/16 03:20:34;;;;;;;25.50;3.42;;;40.50;30.80;;;;;;5046639;28;20138;-72
2022/07/16 03:23:00;;;;;;;19.45;2.72;;;40.40;30.90;;;;;;5048096;28;20137;-71
2022/07/16 03:25:27;;;;;;;27.98;3.03;;;40.30;30.80;;;;;;5046857;28;20145;-71
2022/07/16 03:27:53;;;;;;;23.15;3.08;;;40.20;30.70;;;;;;5046695;28;20070;-70
2022/07/16 03:30:20;;;;;;;25.83;2.67;;;40.10;30.00;;;;;;5048346;28;20078;-72
2022/07/16 03:32:46;;;;;;;15.13;2.20;;;40.10;30.00;;;;;;5050047;28;20077;-70
2022/07/16 03:35:13;;;;;;;15.05;1.98;;;40.00;29.80;;;;;;5042108;28;20548;-72
2022/07/16 03:40:27;;;;;;;24.60;2.67;;;40.00;29.60;;;;;;5029207;28;20058;-71
2022/07/16 03:42:53;;;;;;;22.27;2.97;;;39.90;29.40;;;;;;5027514;28;20056;-75
2022/07/16 03:45:20;;;;;;;20.65;3.50;;;39.80;29.40;;;;;;5025665;28;20052;-73
2022/07/16 03:47:46;;;;;;;19.25;2.50;;;39.70;29.30;;;;;;5027516;28;20090;-72
2022/07/16 03:50:14;;;;;;;21.83;4.50;;;39.70;29.40;;;;;;5026901;28;20067;-73
2022/07/16 03:52:40;;;;;;;25.63;3.17;;;39.70;29.50;;;;;;5027221;28;20498;-72
2022/07/16 03:55:07;;;;;;;23.92;3.85;;;39.70;29.60;;;;;;5027413;28;20206;-73
2022/07/16 03:57:33;;;;;;;22.35;3.38;;;39.60;29.60;;;;;;5027011;28;20068;-72
2022/07/16 04:00:00;;;;;;;25.55;3.97;;;39.60;29.80;;;;;;5026924;28;20546;-72
2022/07/16 04:02:26;;;;;;;19.58;4.55;;;39.60;30.00;;;;;;5026663;28;20089;-74
2022/07/16 04:04:53;;;;;;;24.17;3.25;;;39.50;30.60;;;;;;5027805;28;20183;-71
2022/07/16 04:07:19;;;;;;;17.15;2.80;;;39.50;30.10;;;;;;5026930;28;20470;-72
2022/07/16 04:09:45;;;;;;;27.73;3.08;;;39.40;30.20;;;;;;5027506;28;20165;-73
2022/07/16 04:12:12;;;;;;;23.67;3.15;;;39.40;30.40;;;;;;5027254;28;20514;-74
2022/07/16 04:14:38;;;;;;;27.30;3.67;;;39.40;30.40;;;;;;5026844;28;20059;-71
2022/07/16 04:17:05;;;;;;;31.60;4.25;;;39.30;30.40;;;;;;5026967;28;20543;-72
2022/07/16 04:19:31;;;;;;;19.42;3.60;;;39.30;30.60;;;;;;5026960;28;20066;-72
2022/07/16 04:21:57;;;;;;;27.52;3.30;;;39.30;30.60;;;;;;5027328;28;20060;-71
2022/07/16 04:24:24;;;;;;;25.33;3.20;;;39.30;30.80;;;;;;5043587;28;20044;-72
2022/07/16 04:26:50;;;;;;;19.63;2.92;;;39.20;30.80;;;;;;5026947;28;20064;-72
2022/07/16 04:29:16;;;;;;;25.42;3.00;;;39.20;30.80;;;;;;5028247;28;20062;-71
2022/07/16 04:31:43;;;;;;;21.02;3.10;;;39.10;30.80;;;;;;5026817;28;20057;-72
2022/07/16 04:34:12;;;;;;;13.52;3.33;;;39.10;31.00;;;;;;5027158;28;20480;-74
2022/07/16 04:36:39;;;;;;;16.55;3.00;;;39.10;30.90;;;;;;5026664;28;20123;-72
2022/07/16 04:39:05;;;;;;;19.85;3.35;;;39.00;30.90;;;;;;5027192;28;20061;-72
2022/07/16 04:41:32;;;;;;;18.00;3.00;;;38.90;30.90;;;;;;5027841;28;20076;-71
2022/07/16 04:43:58;;;;;;;15.55;3.67;;;38.90;31.00;;;;;;5026628;28;20716;-71
2022/07/16 04:46:24;;;;;;;19.75;3.47;;;38.90;31.00;;;;;;5027434;28;20057;-74
2022/07/16 04:48:51;;;;;;;21.42;3.67;;;38.80;31.10;;;;;;5027057;28;20530;-75
2022/07/16 04:51:17;;;;;;;28.70;3.63;;;38.80;31.20;;;;;;5028545;28;20157;-71
2022/07/16 04:53:43;;;;;;;20.23;4.05;;;38.70;31.40;;;;;;5026606;28;20064;-72
2022/07/16 04:56:10;;;;;;;22.00;3.15;;;38.70;32.30;;;;;;5029447;28;20082;-72
2022/07/16 04:58:36;;;;;;;22.75;3.58;;;38.70;31.50;;;;;;5030728;28;20104;-71
2022/07/16 05:01:03;;;;;;;19.65;4.18;;;38.70;31.60;;;;;;5030688;28;20121;-72
2022/07/16 05:03:29;;;;;;;21.95;3.03;;;38.70;32.40;;;;;;5029753;28;20462;-72
2022/07/16 05:05:56;;;;;;;8.35;2.30;;;38.70;31.60;;;;;;5030259;28;20063;-71
2022/07/16 05:08:22;;;;;;;9.93;2.58;;;38.70;31.50;;;;;;5027944;28;20172;-70
2022/07/16 05:10:48;;;;;;;10.07;2.70;;;38.70;31.70;;;;;;5030099;28;20152;-71
2022/07/16 05:13:15;;;;;;;15.27;2.45;;;38.70;31.60;;;;;;5031574;28;20060;-70
2022/07/16 05:15:41;;;;;;;13.95;3.03;;;38.70;31.60;;;;;;5030008;28;20134;-70
2022/07/16 05:18:08;;;;;;;16.35;2.40;;;38.70;31.60;;;;;;5030411;28;20509;-71
2022/07/16 05:20:34;;;;;;;11.30;2.70;;;38.70;31.80;;;;;;5030674;28;20109;-70
2022/07/16 05:23:01;;;;;;;12.48;2.92;;;38.60;31.80;;;;;;5030320;28;20053;-71
2022/07/16 05:25:28;;;;;;;15.50;2.83;;;38.60;31.90;;;;;;5029881;28;20153;-71
2022/07/16 05:27:54;;;;;;;10.43;2.65;;;38.60;32.00;;;;;;5029351;28;20053;-71
2022/07/16 05:30:20;;;;;;;13.48;3.63;;;38.50;32.00;;;;;;5029022;28;20063;-71
2022/07/16 05:32:47;;;;;;;14.25;3.17;;;38.40;32.20;;;;;;5029463;28;20089;-73
2022/07/16 05:35:15;;;;;;;12.45;3.33;;;38.30;32.50;;;;;;5029429;28;20528;-73
2022/07/16 05:37:42;;;;;;;12.82;3.20;;;38.30;32.80;;;;;;5030053;28;20504;-69
2022/07/16 05:40:10;;;;;;;26.98;4.45;;;38.20;32.60;;;;;;5029765;28;20058;-72
2022/07/16 05:42:37;;;;;;;20.08;3.78;;;38.20;32.80;;;;;;5029626;28;20071;-72
2022/07/16 05:45:04;;;;;;;24.45;4.57;;;38.20;32.80;;;;;;5029272;28;20057;-71
2022/07/16 05:47:33;;;;;;;24.02;4.07;;;38.20;33.00;;;;;;5028919;28;20060;-73
2022/07/16 05:50:10;;;;;;;17.90;3.92;;;38.10;32.80;;;;;;5029466;28;20160;-71
2022/07/16 05:52:36;;;;;;;23.65;4.22;;;38.10;33.60;;;;;;5029124;28;20157;-71
2022/07/16 05:55:02;;;;;;;22.67;3.92;;;38.00;33.90;;;;;;5030256;28;20058;-73
2022/07/16 05:57:29;;;;;;;17.17;3.88;;;37.90;33.90;;;;;;5029245;28;20073;-71
2022/07/16 05:59:55;;;;;;;17.00;3.78;;;37.90;33.40;;;;;;5031078;28;20057;-72
2022/07/16 06:02:22;;;;;;;23.52;4.03;;;37.80;33.70;;;;;;5029291;28;20212;-72
2022/07/16 06:04:48;;;;;;;18.00;3.75;;;37.80;34.30;;;;;;5028548;28;20063;-69
2022/07/16 06:07:15;;;;;;;19.60;4.20;;;37.70;34.30;;;;;;5029135;28;20071;-71
2022/07/16 06:09:41;;;;;;;14.32;3.85;;;37.60;34.10;;;;;;5029356;28;20071;-72
2022/07/16 06:12:08;;;;;;;15.13;4.90;;;37.60;34.60;;;;;;5029003;28;20074;-72
2022/07/16 06:14:34;;;;;;;18.60;4.30;;;37.50;34.60;;;;;;5027859;28;20058;-71
2022/07/16 06:17:00;;;;;;;22.00;4.13;;;37.50;34.60;;;;;;5029078;28;20085;-70
2022/07/16 06:19:27;;;;;;;17.08;3.97;;;37.40;35.00;;;;;;5029623;28;20171;-72
2022/07/16 06:21:53;;;;;;;19.52;5.03;;;37.40;34.50;;;;;;5030078;28;20063;-73
2022/07/16 06:24:19;;;;;;;18.98;4.28;;;37.30;34.90;;;;;;5028959;28;20097;-71
2022/07/16 06:26:49;;;;;;;27.23;4.72;;;37.30;34.90;;;;;;5027090;28;20073;-71
2022/07/16 06:29:16;;;;;;;23.25;4.82;;;37.20;35.00;;;;;;5043994;28;20433;-72
2022/07/16 06:31:43;;;;;;;33.08;5.55;;;37.20;34.90;;;;;;5027961;28;20075;-71
2022/07/16 06:34:10;;;;;;;31.50;5.28;;;37.20;34.80;;;;;;5028530;28;20154;-70
2022/07/16 06:36:37;;;;;;;22.17;4.53;;;37.20;35.10;;;;;;5028417;28;20082;-67
2022/07/16 06:39:03;;;;;;;31.85;4.82;;;37.20;34.90;;;;;;5029335;28;20079;-65
2022/07/16 06:41:31;;;;;;;20.48;3.63;;;37.20;34.00;;;;;;5029598;28;20062;-63
2022/07/16 06:43:57;;;;;;;20.38;3.83;;;37.20;31.90;;;;;;5027930;28;20067;-65
2022/07/16 06:46:23;;;;;;;13.27;3.30;;;37.30;30.60;;;;;;5027890;28;20063;-64
2022/07/16 06:48:50;;;;;;;20.17;4.03;;;37.40;29.30;;;;;;5027789;28;20443;-64
2022/07/16 06:51:16;;;;;;;21.33;5.07;;;37.40;29.50;;;;;;5029399;28;20067;-68
2022/07/16 06:53:42;;;;;;;15.63;3.92;;;37.40;29.60;;;;;;5028685;28;20061;-69
2022/07/16 06:56:10;;;;;;;12.30;3.17;;;37.50;28.30;;;;;;5028345;28;20088;-68
2022/07/16 06:58:36;;;;;;;10.75;3.63;;;37.50;28.30;;;;;;5011183;28;20059;-66
2022/07/16 07:01:03;;;;;;;8.05;3.60;;;37.60;27.50;;;;;;5028884;28;20426;-66
2022/07/16 07:03:29;;;;;;;11.20;3.00;;;37.60;27.40;;;;;;5028204;28;20446;-63
2022/07/16 07:05:56;;;;;;;9.57;3.33;;;37.60;27.70;;;;;;5029209;28;20074;-66
2022/07/16 07:08:22;;;;;;;9.73;2.97;;;37.60;28.30;;;;;;5027724;28;20071;-69
2022/07/16 07:10:49;;;;;;;7.25;2.88;;;37.60;28.30;;;;;;5027951;28;20438;-65
2022/07/16 07:13:15;;;;;;;5.60;2.72;;;37.50;28.60;;;;;;5028112;28;20113;-67
2022/07/16 07:15:42;;;;;;;10.52;3.22;;;37.50;28.50;;;;;;5010483;28;20079;-67
2022/07/16 07:18:09;;;;;;;17.15;3.05;;;37.50;28.10;;;;;;4995382;28;20072;-69
2022/07/16 07:20:35;;;;;;;12.70;2.92;;;37.40;28.00;;;;;;5027864;28;20065;-65
2022/07/16 07:23:01;;;;;;;10.25;2.75;;;37.40;28.20;;;;;;5011771;28;20056;-65
2022/07/16 07:25:28;;;;;;;13.90;2.67;;;37.40;28.00;;;;;;5028164;28;20068;-65
2022/07/16 07:27:55;;;;;;;11.68;3.00;;;37.40;27.70;;;;;;5027577;28;20121;-67
2022/07/16 07:30:21;;;;;;;11.55;3.35;;;37.40;27.70;;;;;;5027282;28;20153;-65
2022/07/16 07:32:48;;;;;;;8.50;3.25;;;37.30;27.60;;;;;;5027346;28;20077;-66
2022/07/16 07:35:14;;;;;;;11.02;3.78;;;37.30;28.00;;;;;;5027652;28;20082;-69
2022/07/16 07:37:40;;;;;;;13.40;3.70;;;37.30;28.40;;;;;;5028235;28;20089;-65
2022/07/16 07:40:07;;;;;;;18.42;3.60;;;37.30;29.20;;;;;;5028895;28;20075;-65
2022/07/16 07:42:34;;;;;;;16.38;3.95;;;37.20;28.80;;;;;;5029452;28;20407;-65
2022/07/16 07:45:00;;;;;;;11.52;3.80;;;37.10;28.90;;;;;;5028738;28;20080;-65
2022/07/16 07:47:28;;;;;;;15.45;3.90;;;37.10;29.10;;;;;;5028055;28;20161;-65
2022/07/16 07:49:54;;;;;;;11.35;4.03;;;37.00;28.70;;;;;;5027813;28;20061;-67
2022/07/16 07:52:20;;;;;;;12.77;4.28;;;37.10;28.40;;;;;;5028379;28;20473;-71
2022/07/16 07:54:47;;;;;;;17.20;4.20;;;37.10;28.00;;;;;;5028163;28;20437;-65
2022/07/16 07:57:13;;;;;;;18.23;3.80;;;37.10;27.70;;;;;;5028328;28;20091;-65
2022/07/16 07:59:40;;;;;;;11.25;3.08;;;37.20;27.20;;;;;;5028255;28;20059;-68
2022/07/16 08:02:06;;;;;;;12.00;3.50;;;37.20;27.70;;;;;;5028227;28;20453;-66
2022/07/16 08:04:36;;;;;;;10.23;2.60;;;37.20;27.70;;;;;;5026788;28;20066;-64
2022/07/16 08:07:02;;;;;;;13.82;2.42;;;37.20;27.20;;;;;;5026779;28;20073;-67
2022/07/16 08:09:29;;;;;;;10.32;2.63;;;37.20;27.50;;;;;;5011630;28;20153;-68
2022/07/16 08:11:55;;;;;;;11.90;2.90;;;37.20;27.70;;;;;;5027410;28;20092;-65
2022/07/16 08:14:22;;;;;;;16.05;2.88;;;37.20;27.50;;;;;;5028372;28;20080;-68
2022/07/16 08:16:48;;;;;;;11.23;2.65;;;37.10;27.70;;;;;;5010644;28;20083;-68
2022/07/16 08:19:15;;;;;;;13.07;3.10;;;37.10;27.60;;;;;;5028283;28;20120;-65
2022/07/16 08:21:41;;;;;;;10.43;3.22;;;37.10;27.60;;;;;;5029051;28;20071;-68
2022/07/16 08:26:52;;;;;;;14.02;2.78;;;37.00;27.70;;;;;;5027514;28;20425;-66
2022/07/16 08:29:19;;;;;;;12.95;2.90;;;36.90;28.00;;;;;;5025718;28;20091;-69
2022/07/16 08:31:45;;;;;;;14.40;2.75;;;36.90;28.20;;;;;;5030006;28;20437;-66
2022/07/16 08:34:11;;;;;;;9.52;2.70;;;36.90;28.10;;;;;;5029416;28;20074;-66
2022/07/16 08:36:38;;;;;;;7.22;3.00;;;36.80;28.30;;;;;;5031073;28;20085;-66
2022/07/16 08:39:04;;;;;;;15.02;3.90;;;36.80;28.80;;;;;;5031712;28;20093;-66
2022/07/16 08:41:31;;;;;;;11.45;3.15;;;36.70;28.40;;;;;;5030729;28;20126;-65
2022/07/16 08:43:59;;;;;;;9.60;2.75;;;36.70;28.30;;;;;;5031138;28;20072;-66
2022/07/16 08:46:27;;;;;;;6.65;2.30;;;36.50;29.30;;;;;;5030740;28;20066;-66
2022/07/16 08:48:53;;;;;;;14.75;2.90;;;36.50;29.10;;;;;;5030659;28;21354;-66
2022/07/16 08:51:32;;;;;;;9.38;2.60;;;36.40;28.90;;;;;;5032102;28;20073;-68
2022/07/16 08:54:05;;;;;;;6.25;2.33;;;36.40;29.20;;;;;;5029535;28;20071;-68
2022/07/16 08:56:33;;;;;;;12.43;2.38;;;36.30;29.70;;;;;;5030466;28;20083;-68
2022/07/16 08:59:01;;;;;;;10.43;2.15;;;36.30;29.30;;;;;;5013764;28;20073;-66
2022/07/16 09:01:29;;;;;;;9.48;2.05;;;36.20;29.20;;;;;;5012299;28;20213;-66
2022/07/16 09:04:01;;;;;;;8.93;2.05;;;36.20;29.20;;;;;;5030492;28;20161;-66
2022/07/16 09:06:27;;;;;;;8.15;1.92;;;36.10;29.10;;;;;;5029848;28;20075;-64
2022/07/16 09:08:54;;;;;;;14.00;2.30;;;36.10;29.20;;;;;;5030132;28;20073;-65
2022/07/16 09:11:23;;;;;;;3.65;1.70;;;36.00;29.20;;;;;;5030449;28;20142;-66
2022/07/16 09:14:02;;;;;;;12.38;2.00;;;35.90;29.20;;;;;;5029341;28;20077;-69
2022/07/16 09:16:43;;;;;;;20.08;3.60;;;35.80;29.60;;;;;;5030970;28;20099;-65
2022/07/16 09:19:18;;;;;;;28.80;4.47;;;35.80;31.80;;;;;;5030710;28;20604;-66
2022/07/16 09:22:09;;;;;;;26.92;5.00;;;35.70;32.60;;;;;;5030785;28;20446;-67
2022/07/16 09:24:35;;;;;;;22.30;4.07;;;35.60;33.30;;;;;;5029136;28;20498;-68
2022/07/16 09:27:10;;;;;;;26.45;4.15;;;35.60;34.20;;;;;;5029706;28;20072;-66
2022/07/16 09:29:45;;;;;;;14.93;3.67;;;35.50;34.30;;;;;;5030957;28;20476;-66
2022/07/16 09:32:13;;;;;;;21.50;3.25;;;35.40;35.30;;;;;;5013935;28;20075;-66
2022/07/16 09:34:39;;;;;;;11.98;3.03;;;35.40;34.70;;;;;;5030705;28;20551;-67
2022/07/16 09:37:07;;;;;;;13.18;2.53;;;35.30;34.90;;;;;;5031404;28;20200;-69
2022/07/16 09:39:34;;;;;;;17.05;2.85;;;35.20;35.20;;;;;;5030637;28;20085;-71
2022/07/16 09:42:01;;;;;;;11.15;3.72;;;35.20;36.60;;;;;;5029273;28;20069;-66
2022/07/16 09:44:34;;;;;;;8.23;3.40;;;35.00;35.90;;;;;;5014037;28;20100;-66
2022/07/16 09:47:09;;;;;;;12.18;2.95;;;34.90;36.70;;;;;;5030259;28;20082;-66
2022/07/16 09:49:40;;;;;;;12.02;2.88;;;34.80;36.40;;;;;;5030565;28;20068;-66
2022/07/16 09:52:41;;;;;;;7.68;2.55;;;34.90;38.00;;;;;;5028892;28;20103;-66
2022/07/16 09:55:08;;;;;;;17.08;3.15;;;34.80;37.10;;;;;;5011343;28;20073;-68
2022/07/16 09:57:36;;;;;;;7.30;2.58;;;34.60;37.60;;;;;;4994456;28;20069;-67
2022/07/16 10:00:07;;;;;;;15.88;2.90;;;34.60;38.60;;;;;;5011453;28;20095;-66
2022/07/16 10:02:33;;;;;;;11.10;3.05;;;34.60;38.40;;;;;;5010364;28;20518;-67
2022/07/16 10:05:01;;;;;;;10.73;2.78;;;34.60;37.80;;;;;;5010420;28;20173;-65
2022/07/16 10:07:27;;;;;;;10.98;2.60;;;34.60;37.50;;;;;;5010022;28;20089;-64
2022/07/16 10:09:53;;;;;;;14.68;3.05;;;34.50;37.60;;;;;;5009470;28;20074;-68
2022/07/16 10:12:21;;;;;;;8.57;2.53;;;34.50;37.70;;;;;;5010079;28;20093;-65
2022/07/16 10:14:50;;;;;;;12.00;3.58;;;34.40;37.80;;;;;;4993482;28;20544;-66
2022/07/16 10:17:19;;;;;;;19.90;3.42;;;34.40;38.00;;;;;;5025595;28;20497;-66
2022/07/16 10:19:45;;;;;;;14.50;2.85;;;34.30;38.30;;;;;;5010079;28;20525;-66
2022/07/16 10:22:27;;;;;;;13.43;3.55;;;34.30;38.20;;;;;;5025189;28;20518;-68
2022/07/16 10:24:56;;;;;;;6.45;2.47;;;34.20;38.20;;;;;;5008625;28;20446;-66
2022/07/16 10:27:35;;;;;;;9.85;3.15;;;34.20;38.80;;;;;;5009825;28;20085;-68
2022/07/16 10:30:25;;;;;;;8.77;2.75;;;34.20;38.90;;;;;;5009073;28;20519;-66
2022/07/16 10:33:02;;;;;;;21.00;3.05;;;34.20;38.70;;;;;;5009347;28;20078;-66
2022/07/16 10:35:44;;;;;;;20.08;3.78;;;34.10;38.80;;;;;;5008782;28;20092;-64
2022/07/16 10:38:12;;;;;;;11.50;3.25;;;34.00;38.90;;;;;;5009402;28;20077;-66
2022/07/16 10:40:40;;;;;;;10.25;2.85;;;34.00;39.30;;;;;;5024847;28;20494;-65
2022/07/16 10:43:11;;;;;;;12.88;3.38;;;34.00;40.00;;;;;;5024717;28;20072;-64
2022/07/16 10:45:54;;;;;;;15.65;3.67;;;33.90;39.60;;;;;;5008775;28;20085;-67
2022/07/16 10:48:22;;;;;;;14.05;3.28;;;33.90;39.50;;;;;;5008462;28;20089;-68
2022/07/16 10:51:15;;;;;;;9.77;3.78;;;33.90;39.50;;;;;;5025126;28;20445;-64
2022/07/16 10:54:03;;;;;;;16.38;4.22;;;33.90;39.80;;;;;;4992691;28;20151;-64
2022/07/16 10:56:38;;;;;;;20.40;3.85;;;33.90;39.90;;;;;;5008368;28;20093;-66
2022/07/16 10:59:07;;;;;;;16.57;4.43;;;33.90;40.10;;;;;;5008668;28;20079;-65
2022/07/16 11:01:39;;;;;;;16.98;4.82;;;33.90;40.20;;;;;;5007897;28;20492;-65
2022/07/16 11:04:08;;;;;;;23.00;4.97;;;33.80;40.50;;;;;;5009480;28;20069;-65
2022/07/16 11:06:35;;;;;;;21.75;5.47;;;33.70;40.90;;;;;;4992151;28;20069;-65
2022/07/16 11:09:03;;;;;;;26.30;5.70;;;33.80;41.20;;;;;;5008638;28;21071;-65
2022/07/16 11:11:39;;;;;;;31.33;5.90;;;33.80;40.80;;;;;;5024609;28;20160;-65
2022/07/16 11:14:06;;;;;;;16.95;3.97;;;33.70;40.80;;;;;;5024461;28;21368;-66
2022/07/16 11:16:33;;;;;;;14.18;4.20;;;33.70;41.10;;;;;;5007509;28;20097;-65
2022/07/16 11:19:04;;;;;;;19.00;4.13;;;33.70;41.30;;;;;;5007472;28;20065;-64
2022/07/16 11:21:31;;;;;;;16.27;4.53;;;33.70;41.50;;;;;;5008376;28;20077;-65
2022/07/16 11:24:00;;;;;;;17.75;4.38;;;33.60;42.10;;;;;;5008617;28;20077;-66
2022/07/16 11:26:28;;;;;;;9.82;3.58;;;33.60;42.60;;;;;;5008188;28;20081;-64
2022/07/16 11:29:01;;;;;;;17.27;3.90;;;33.60;42.80;;;;;;5008162;28;20426;-66
2022/07/16 11:31:33;;;;;;;20.58;4.30;;;33.60;43.00;;;;;;5024133;28;20073;-65
2022/07/16 11:34:02;;;;;;;15.45;3.88;;;33.50;43.10;;;;;;5007014;28;20074;-65
2022/07/16 11:36:30;;;;;;;15.75;4.30;;;33.50;43.10;;;;;;5008469;28;20179;-65
2022/07/16 11:39:04;;;;;;;16.83;4.97;;;33.40;43.30;;;;;;5008248;28;20069;-69
2022/07/16 11:41:36;;;;;;;13.52;4.25;;;33.30;44.00;;;;;;5007959;28;20583;-67
2022/07/16 11:44:10;;;;;;;15.98;4.32;;;33.20;44.60;;;;;;5023670;28;20078;-65
2022/07/16 11:46:46;;;;;;;23.80;3.80;;;33.30;45.00;;;;;;5023872;28;20073;-65
2022/07/16 11:49:21;;;;;;;12.02;3.10;;;33.30;45.80;;;;;;5007329;28;20077;-67
2022/07/16 11:51:47;;;;;;;10.60;2.90;;;33.20;46.30;;;;;;5023962;28;20077;-69
2022/07/16 11:54:14;;;;;;;12.98;3.03;;;33.20;46.80;;;;;;5007955;28;20447;-69
2022/07/16 11:56:42;;;;;;;14.13;3.60;;;33.10;47.40;;;;;;5009009;28;20139;-70
2022/07/16 11:59:20;;;;;;;7.35;2.85;;;33.10;47.40;;;;;;5008895;28;20540;-71
2022/07/16 12:01:47;;;;;;;5.88;2.70;;;33.10;48.60;;;;;;5023607;28;20140;-67
2022/07/16 12:04:14;;;;;;;10.13;3.65;;;33.00;48.00;;;;;;5008558;28;20065;-67
2022/07/16 12:06:47;;;;;;;10.65;3.53;;;33.00;48.10;;;;;;5026642;28;20077;-66
2022/07/16 12:09:28;;;;;;;13.27;3.85;;;33.00;48.30;;;;;;5012077;28;20075;-66
2022/07/16 12:11:59;;;;;;;15.68;4.93;;;32.90;48.40;;;;;;5011574;28;20688;-70
2022/07/16 12:15:02;;;;;;;21.77;5.15;;;32.90;48.60;;;;;;5012221;28;20881;-70
2022/07/16 12:17:33;;;;;;;21.33;5.97;;;32.90;48.80;;;;;;4947513;29;20134;-73
2022/07/16 12:20:17;;;;;;;24.23;5.72;;;32.80;49.10;;;;;;4947383;29;20079;-64
2022/07/16 12:23:06;;;;;;;19.92;5.72;;;32.70;49.30;;;;;;4944618;29;20121;-67
2022/07/16 12:25:44;;;;;;;18.65;6.03;;;32.70;49.60;;;;;;4931413;29;20174;-67
2022/07/16 12:28:22;;;;;;;20.52;5.05;;;32.70;50.00;;;;;;4931116;29;20531;-68
2022/07/16 12:30:59;;;;;;;20.83;5.38;;;32.60;50.30;;;;;;4932807;29;20078;-67
2022/07/16 12:33:30;;;;;;;21.02;5.75;;;32.60;50.60;;;;;;4943033;29;20202;-68
2022/07/16 12:35:56;;;;;;;19.05;4.93;;;32.50;50.80;;;;;;4929060;29;20090;-69
2022/07/16 12:39:02;;;;;;;26.38;5.28;;;32.40;51.20;;;;;;4931179;29;20578;-67
2022/07/16 12:41:28;;;;;;;20.98;5.85;;;32.40;51.70;;;;;;4946657;29;20070;-66
2022/07/16 12:43:58;;;;;;;21.05;5.72;;;32.40;51.70;;;;;;4946539;29;20071;-66
2022/07/16 12:46:48;;;;;;;19.98;5.53;;;32.40;51.80;;;;;;4946360;29;20082;-66
2022/07/16 12:49:20;;;;;;;22.48;6.30;;;32.40;51.90;;;;;;4943798;29;20088;-66
2022/07/16 12:51:49;;;;;;;16.02;6.38;;;32.40;52.20;;;;;;4998419;28;20085;-67
2022/07/16 12:54:17;;;;;;;22.65;6.57;;;32.50;52.50;;;;;;5012402;28;20085;-65
2022/07/16 12:59:29;;;;;;;22.00;6.63;;;32.40;52.70;;;;;;5011259;28;20131;-68